Dobbins Air Reserve Base Airport
KMGE : now visible

Airfield :











YOU CAN JOIN US ON...

 
LOGIN :

Register | Disclaimer

   EN    FR    IT 

 









Legend :    VFR   Marginal VFR   IFR   Intensive IFR   Very Intensive IFR
Visi :
Ceiling :
>= 8 km
>= 3000ft
5 to 8 km
1000 to 3000 ft
1500m to 5 km
500 to 1000 ft
800 to 1500m
200 to 500 ft
< 800m
< 200 ft
Symbols :   Thunderstorms  Fog  Heavy snow  Heavy precipitations  Wind > 20 kt






- Airport Elevation : 1068 ft


KMGE - Dobbins Air Reserve Base

CURRENT METAR :
  • 071956Z 22009G16KT 10SM FEW040TCU BKN100 OVC150 23/14 A3001 RMK AO2A TCU E SLP156 T02340144 $

EXPIRED METARs :
  • 071856Z 23010KT 10SM BKN043CB BKN120 OVC250 24/15 A3004 RMK AO2A CB 4NE MOV NE SLP166 P0000 T02400147 $
  • 071841Z 26011KT 10SM BKN040CB BKN120 OVC250 24/15 A3003 RMK CB 2NE MOV NE $
  • 071821Z 28011KT 10SM -SHRA BKN040CB BKN120 OVC250 24/16 A3003 RMK A02A CB 9NW MOV NE $
  • 071756Z 28010KT 10SM BKN040 BKN120 OVC250 25/16 A3004 RMK AO2A SLP166 T02460155 10250 20165 58018 $

TAF TAF KMGE
Valid from the 07 at 05:00 until the 08 at 11:00 UTC


070500Z 0705/0811 23006KT 9999 FEW040 QNH3006INS
BECMG 0715/0716 25012KT 9999 VCSH SCT030 QNH3004INS
BECMG 0717/0718 26010G20KT 9000 -SHRA BR BKN040 BKN150 QNH2999INS
BECMG 0721/0722 26010G20KT 9999 NSW BKN040 BKN200 QNH3000INS
BECMG 0806/0807 24006KT 8000 DZ BR BKN007 QNH2992INS TX22/0717Z TN16/0710Z



MET'MAP, your aeronautical weather chart ! - Copyright ORBIFLY December 2007 - Disclaimer

ORBIFLY MET'MAP TEAM :

Programming & Development : Alexandra Zaïnal
Concept & original design : Baudouin d'Aumeries
Assistance for programming : Marc-Olivier Méhu
Technical & hardware support : Manuel Goepfert

Contact : metmap@orbifly.com




SOURCES & CREDITS :

   NOAA       Earth
Advisory